sensor_id;sensor_type;location;lat;lon;timestamp;P1;durP1;ratioP1;P2;durP2;ratioP2
20474;SDS011;10396;51.724;23.090;2022-08-30T00:02:01;9.90;;;4.43;;
20474;SDS011;10396;51.724;23.090;2022-08-30T00:04:27;12.10;;;4.30;;
20474;SDS011;10396;51.724;23.090;2022-08-30T00:06:55;11.75;;;4.45;;
20474;SDS011;10396;51.724;23.090;2022-08-30T00:09:22;10.77;;;4.70;;
20474;SDS011;10396;51.724;23.090;2022-08-30T00:11:50;10.20;;;4.50;;
20474;SDS011;10396;51.724;23.090;2022-08-30T00:14:17;11.65;;;5.30;;
20474;SDS011;10396;51.724;23.090;2022-08-30T00:16:45;13.90;;;4.65;;
20474;SDS011;10396;51.724;23.090;2022-08-30T00:19:14;13.05;;;4.72;;
20474;SDS011;10396;51.724;23.090;2022-08-30T00:21:41;12.25;;;4.85;;
20474;SDS011;10396;51.724;23.090;2022-08-30T00:24:09;15.15;;;4.60;;
20474;SDS011;10396;51.724;23.090;2022-08-30T00:26:36;11.88;;;5.00;;
20474;SDS011;10396;51.724;23.090;2022-08-30T00:29:04;12.23;;;4.90;;
20474;SDS011;10396;51.724;23.090;2022-08-30T00:31:32;11.43;;;4.50;;
20474;SDS011;10396;51.724;23.090;2022-08-30T00:33:59;11.02;;;4.72;;
20474;SDS011;10396;51.724;23.090;2022-08-30T00:36:28;12.82;;;4.90;;
20474;SDS011;10396;51.724;23.090;2022-08-30T00:38:55;10.80;;;4.95;;
20474;SDS011;10396;51.724;23.090;2022-08-30T00:41:23;11.98;;;5.05;;
20474;SDS011;10396;51.724;23.090;2022-08-30T00:43:50;11.50;;;5.15;;
20474;SDS011;10396;51.724;23.090;2022-08-30T00:46:18;11.43;;;4.90;;
20474;SDS011;10396;51.724;23.090;2022-08-30T00:48:46;11.25;;;4.70;;
20474;SDS011;10396;51.724;23.090;2022-08-30T00:51:14;14.40;;;4.90;;
20474;SDS011;10396;51.724;23.090;2022-08-30T00:53:46;11.23;;;4.47;;
20474;SDS011;10396;51.724;23.090;2022-08-30T00:56:15;11.25;;;5.35;;
20474;SDS011;10396;51.724;23.090;2022-08-30T00:58:44;11.55;;;4.88;;
20474;SDS011;10396;51.724;23.090;2022-08-30T01:01:14;13.85;;;5.20;;
20474;SDS011;10396;51.724;23.090;2022-08-30T01:03:42;14.63;;;5.28;;
20474;SDS011;10396;51.724;23.090;2022-08-30T01:06:10;12.82;;;5.18;;
20474;SDS011;10396;51.724;23.090;2022-08-30T01:08:39;11.35;;;5.10;;
20474;SDS011;10396;51.724;23.090;2022-08-30T01:11:08;13.20;;;4.80;;
20474;SDS011;10396;51.724;23.090;2022-08-30T01:13:37;10.95;;;4.50;;
20474;SDS011;10396;51.724;23.090;2022-08-30T01:16:05;14.77;;;5.38;;
20474;SDS011;10396;51.724;23.090;2022-08-30T01:18:32;14.13;;;5.70;;
20474;SDS011;10396;51.724;23.090;2022-08-30T01:21:03;12.80;;;5.00;;
20474;SDS011;10396;51.724;23.090;2022-08-30T01:23:38;12.18;;;4.85;;
20474;SDS011;10396;51.724;23.090;2022-08-30T01:26:08;11.75;;;5.40;;
20474;SDS011;10396;51.724;23.090;2022-08-30T01:28:37;15.48;;;5.10;;
20474;SDS011;10396;51.724;23.090;2022-08-30T01:31:05;12.32;;;5.03;;
20474;SDS011;10396;51.724;23.090;2022-08-30T01:33:34;12.85;;;5.00;;
20474;SDS011;10396;51.724;23.090;2022-08-30T01:36:03;12.80;;;5.65;;
20474;SDS011;10396;51.724;23.090;2022-08-30T01:38:33;13.70;;;5.43;;
20474;SDS011;10396;51.724;23.090;2022-08-30T01:41:09;13.43;;;5.15;;
20474;SDS011;10396;51.724;23.090;2022-08-30T01:43:38;14.07;;;5.60;;
20474;SDS011;10396;51.724;23.090;2022-08-30T01:46:06;10.45;;;4.90;;
20474;SDS011;10396;51.724;23.090;2022-08-30T01:48:35;11.35;;;4.90;;
20474;SDS011;10396;51.724;23.090;2022-08-30T01:51:03;13.23;;;5.30;;
20474;SDS011;10396;51.724;23.090;2022-08-30T01:53:31;13.20;;;5.45;;
20474;SDS011;10396;51.724;23.090;2022-08-30T01:55:58;11.90;;;5.18;;
20474;SDS011;10396;51.724;23.090;2022-08-30T01:58:27;12.25;;;5.10;;
20474;SDS011;10396;51.724;23.090;2022-08-30T02:00:55;11.90;;;5.47;;
20474;SDS011;10396;51.724;23.090;2022-08-30T02:03:22;11.35;;;5.30;;
20474;SDS011;10396;51.724;23.090;2022-08-30T02:05:50;12.48;;;5.68;;
20474;SDS011;10396;51.724;23.090;2022-08-30T02:08:18;12.73;;;5.80;;
20474;SDS011;10396;51.724;23.090;2022-08-30T02:10:46;13.23;;;5.72;;
20474;SDS011;10396;51.724;23.090;2022-08-30T02:13:13;12.10;;;5.82;;
20474;SDS011;10396;51.724;23.090;2022-08-30T02:15:42;11.52;;;5.38;;
20474;SDS011;10396;51.724;23.090;2022-08-30T02:18:09;13.48;;;5.55;;
20474;SDS011;10396;51.724;23.090;2022-08-30T02:20:37;11.52;;;5.80;;
20474;SDS011;10396;51.724;23.090;2022-08-30T02:23:05;16.35;;;5.93;;
20474;SDS011;10396;51.724;23.090;2022-08-30T02:25:33;12.68;;;6.05;;
20474;SDS011;10396;51.724;23.090;2022-08-30T02:28:00;14.65;;;6.68;;
20474;SDS011;10396;51.724;23.090;2022-08-30T02:30:28;12.45;;;5.85;;
20474;SDS011;10396;51.724;23.090;2022-08-30T02:32:57;11.85;;;5.95;;
20474;SDS011;10396;51.724;23.090;2022-08-30T02:35:24;11.77;;;6.05;;
20474;SDS011;10396;51.724;23.090;2022-08-30T02:37:52;14.98;;;6.53;;
20474;SDS011;10396;51.724;23.090;2022-08-30T02:40:20;15.35;;;6.25;;
20474;SDS011;10396;51.724;23.090;2022-08-30T02:42:48;13.85;;;5.95;;
20474;SDS011;10396;51.724;23.090;2022-08-30T02:45:16;11.02;;;5.75;;
20474;SDS011;10396;51.724;23.090;2022-08-30T02:47:43;12.75;;;6.18;;
20474;SDS011;10396;51.724;23.090;2022-08-30T02:50:12;12.52;;;6.43;;
20474;SDS011;10396;51.724;23.090;2022-08-30T02:52:40;11.63;;;6.05;;
20474;SDS011;10396;51.724;23.090;2022-08-30T02:55:08;11.70;;;5.78;;
20474;SDS011;10396;51.724;23.090;2022-08-30T02:57:36;11.40;;;5.68;;
20474;SDS011;10396;51.724;23.090;2022-08-30T03:00:04;11.95;;;5.80;;
20474;SDS011;10396;51.724;23.090;2022-08-30T03:02:32;12.52;;;6.10;;
20474;SDS011;10396;51.724;23.090;2022-08-30T03:05:00;13.38;;;5.75;;
20474;SDS011;10396;51.724;23.090;2022-08-30T03:07:30;12.25;;;5.68;;
20474;SDS011;10396;51.724;23.090;2022-08-30T03:09:57;14.05;;;6.38;;
20474;SDS011;10396;51.724;23.090;2022-08-30T03:12:25;14.27;;;6.57;;
20474;SDS011;10396;51.724;23.090;2022-08-30T03:14:52;29.35;;;18.58;;
20474;SDS011;10396;51.724;23.090;2022-08-30T03:17:20;19.40;;;10.70;;
20474;SDS011;10396;51.724;23.090;2022-08-30T03:19:48;15.65;;;9.27;;
20474;SDS011;10396;51.724;23.090;2022-08-30T03:22:16;12.75;;;6.15;;
20474;SDS011;10396;51.724;23.090;2022-08-30T03:24:45;15.20;;;7.53;;
20474;SDS011;10396;51.724;23.090;2022-08-30T03:27:12;15.50;;;8.18;;
20474;SDS011;10396;51.724;23.090;2022-08-30T03:29:40;16.90;;;8.68;;
20474;SDS011;10396;51.724;23.090;2022-08-30T03:32:07;14.80;;;7.57;;
20474;SDS011;10396;51.724;23.090;2022-08-30T03:34:35;13.70;;;6.05;;
20474;SDS011;10396;51.724;23.090;2022-08-30T03:37:03;12.90;;;6.20;;
20474;SDS011;10396;51.724;23.090;2022-08-30T03:39:30;14.43;;;6.28;;
20474;SDS011;10396;51.724;23.090;2022-08-30T03:41:59;12.27;;;6.75;;
20474;SDS011;10396;51.724;23.090;2022-08-30T03:44:26;12.55;;;6.30;;
20474;SDS011;10396;51.724;23.090;2022-08-30T03:46:54;11.77;;;6.45;;
20474;SDS011;10396;51.724;23.090;2022-08-30T03:49:21;12.75;;;6.05;;
20474;SDS011;10396;51.724;23.090;2022-08-30T03:51:50;12.93;;;6.32;;
20474;SDS011;10396;51.724;23.090;2022-08-30T03:54:17;16.77;;;8.63;;
20474;SDS011;10396;51.724;23.090;2022-08-30T03:56:45;13.60;;;7.97;;
20474;SDS011;10396;51.724;23.090;2022-08-30T03:59:14;12.68;;;6.45;;
20474;SDS011;10396;51.724;23.090;2022-08-30T04:01:41;12.85;;;6.70;;
20474;SDS011;10396;51.724;23.090;2022-08-30T04:04:10;14.55;;;7.18;;
20474;SDS011;10396;51.724;23.090;2022-08-30T04:06:38;17.27;;;10.13;;
20474;SDS011;10396;51.724;23.090;2022-08-30T04:09:05;13.00;;;6.72;;
20474;SDS011;10396;51.724;23.090;2022-08-30T04:11:33;15.30;;;7.32;;
20474;SDS011;10396;51.724;23.090;2022-08-30T04:14:01;13.45;;;6.57;;
20474;SDS011;10396;51.724;23.090;2022-08-30T04:16:29;15.48;;;6.93;;
20474;SDS011;10396;51.724;23.090;2022-08-30T04:18:57;15.80;;;7.45;;
20474;SDS011;10396;51.724;23.090;2022-08-30T04:21:25;15.10;;;6.85;;
20474;SDS011;10396;51.724;23.090;2022-08-30T04:23:52;14.05;;;6.63;;
20474;SDS011;10396;51.724;23.090;2022-08-30T04:26:20;13.38;;;6.80;;
20474;SDS011;10396;51.724;23.090;2022-08-30T04:28:47;16.10;;;7.07;;
20474;SDS011;10396;51.724;23.090;2022-08-30T04:31:16;17.52;;;6.57;;
20474;SDS011;10396;51.724;23.090;2022-08-30T04:33:46;13.13;;;6.80;;
20474;SDS011;10396;51.724;23.090;2022-08-30T04:36:14;12.70;;;6.53;;
20474;SDS011;10396;51.724;23.090;2022-08-30T04:38:41;13.18;;;6.45;;
20474;SDS011;10396;51.724;23.090;2022-08-30T04:41:09;15.40;;;6.38;;
20474;SDS011;10396;51.724;23.090;2022-08-30T04:43:38;17.92;;;6.47;;
20474;SDS011;10396;51.724;23.090;2022-08-30T04:46:06;15.95;;;6.63;;
20474;SDS011;10396;51.724;23.090;2022-08-30T04:48:34;13.80;;;6.45;;
20474;SDS011;10396;51.724;23.090;2022-08-30T04:51:04;18.15;;;7.07;;
20474;SDS011;10396;51.724;23.090;2022-08-30T04:53:33;13.32;;;7.25;;
20474;SDS011;10396;51.724;23.090;2022-08-30T04:56:00;13.63;;;7.05;;
20474;SDS011;10396;51.724;23.090;2022-08-30T04:58:33;14.73;;;7.00;;
20474;SDS011;10396;51.724;23.090;2022-08-30T05:01:03;14.25;;;7.28;;
20474;SDS011;10396;51.724;23.090;2022-08-30T05:03:31;15.23;;;7.35;;
20474;SDS011;10396;51.724;23.090;2022-08-30T05:05:58;15.57;;;7.00;;
20474;SDS011;10396;51.724;23.090;2022-08-30T05:08:27;14.50;;;7.00;;
20474;SDS011;10396;51.724;23.090;2022-08-30T05:10:55;13.88;;;7.00;;
20474;SDS011;10396;51.724;23.090;2022-08-30T05:13:22;15.57;;;7.13;;
20474;SDS011;10396;51.724;23.090;2022-08-30T05:15:50;18.38;;;7.30;;
20474;SDS011;10396;51.724;23.090;2022-08-30T05:18:17;13.57;;;6.63;;
20474;SDS011;10396;51.724;23.090;2022-08-30T05:20:45;15.88;;;7.60;;
20474;SDS011;10396;51.724;23.090;2022-08-30T05:23:13;13.23;;;7.38;;
20474;SDS011;10396;51.724;23.090;2022-08-30T05:25:42;15.80;;;7.72;;
20474;SDS011;10396;51.724;23.090;2022-08-30T05:28:10;13.90;;;7.50;;
20474;SDS011;10396;51.724;23.090;2022-08-30T05:30:38;14.48;;;6.80;;
20474;SDS011;10396;51.724;23.090;2022-08-30T05:33:06;16.15;;;7.40;;
20474;SDS011;10396;51.724;23.090;2022-08-30T05:35:34;15.30;;;7.35;;
20474;SDS011;10396;51.724;23.090;2022-08-30T05:38:01;16.15;;;7.57;;
20474;SDS011;10396;51.724;23.090;2022-08-30T05:40:29;15.48;;;7.30;;
20474;SDS011;10396;51.724;23.090;2022-08-30T05:42:58;13.98;;;7.18;;
20474;SDS011;10396;51.724;23.090;2022-08-30T05:45:25;15.55;;;8.05;;
20474;SDS011;10396;51.724;23.090;2022-08-30T05:47:53;18.42;;;7.22;;
20474;SDS011;10396;51.724;23.090;2022-08-30T05:50:20;14.60;;;7.57;;
20474;SDS011;10396;51.724;23.090;2022-08-30T05:52:48;14.75;;;7.53;;
20474;SDS011;10396;51.724;23.090;2022-08-30T05:55:16;16.17;;;7.38;;
20474;SDS011;10396;51.724;23.090;2022-08-30T05:57:44;14.80;;;7.95;;
20474;SDS011;10396;51.724;23.090;2022-08-30T06:00:14;15.23;;;8.18;;
20474;SDS011;10396;51.724;23.090;2022-08-30T06:02:43;14.25;;;8.02;;
20474;SDS011;10396;51.724;23.090;2022-08-30T06:05:11;15.20;;;7.85;;
20474;SDS011;10396;51.724;23.090;2022-08-30T06:07:38;17.00;;;7.85;;
20474;SDS011;10396;51.724;23.090;2022-08-30T06:10:06;15.73;;;7.93;;
20474;SDS011;10396;51.724;23.090;2022-08-30T06:12:34;16.55;;;7.47;;
20474;SDS011;10396;51.724;23.090;2022-08-30T06:15:02;16.25;;;7.78;;
20474;SDS011;10396;51.724;23.090;2022-08-30T06:17:31;15.35;;;7.85;;
20474;SDS011;10396;51.724;23.090;2022-08-30T06:19:59;12.00;;;7.07;;
20474;SDS011;10396;51.724;23.090;2022-08-30T06:22:26;12.70;;;7.38;;
20474;SDS011;10396;51.724;23.090;2022-08-30T06:24:53;14.20;;;7.18;;
20474;SDS011;10396;51.724;23.090;2022-08-30T06:27:21;13.85;;;7.10;;
20474;SDS011;10396;51.724;23.090;2022-08-30T06:29:49;15.00;;;6.97;;
20474;SDS011;10396;51.724;23.090;2022-08-30T06:32:17;14.25;;;7.45;;
20474;SDS011;10396;51.724;23.090;2022-08-30T06:34:46;14.15;;;6.97;;
20474;SDS011;10396;51.724;23.090;2022-08-30T06:37:14;14.73;;;7.40;;
20474;SDS011;10396;51.724;23.090;2022-08-30T06:39:41;12.85;;;6.10;;
20474;SDS011;10396;51.724;23.090;2022-08-30T06:42:09;14.43;;;6.95;;
20474;SDS011;10396;51.724;23.090;2022-08-30T06:44:36;17.48;;;7.25;;
20474;SDS011;10396;51.724;23.090;2022-08-30T06:47:04;14.73;;;7.00;;
20474;SDS011;10396;51.724;23.090;2022-08-30T06:49:32;16.25;;;6.97;;
20474;SDS011;10396;51.724;23.090;2022-08-30T06:52:01;12.23;;;6.63;;
20474;SDS011;10396;51.724;23.090;2022-08-30T06:54:29;12.57;;;5.95;;
20474;SDS011;10396;51.724;23.090;2022-08-30T06:56:57;12.43;;;6.10;;
20474;SDS011;10396;51.724;23.090;2022-08-30T06:59:25;14.25;;;6.60;;
20474;SDS011;10396;51.724;23.090;2022-08-30T07:01:53;10.50;;;5.57;;
20474;SDS011;10396;51.724;23.090;2022-08-30T07:04:21;12.98;;;6.25;;
20474;SDS011;10396;51.724;23.090;2022-08-30T07:06:48;14.25;;;5.95;;
20474;SDS011;10396;51.724;23.090;2022-08-30T07:09:17;11.77;;;6.05;;
20474;SDS011;10396;51.724;23.090;2022-08-30T07:11:45;13.95;;;6.38;;
20474;SDS011;10396;51.724;23.090;2022-08-30T07:14:12;11.88;;;5.50;;
20474;SDS011;10396;51.724;23.090;2022-08-30T07:16:40;12.98;;;5.28;;
20474;SDS011;10396;51.724;23.090;2022-08-30T07:19:08;10.68;;;5.28;;
20474;SDS011;10396;51.724;23.090;2022-08-30T07:21:35;10.40;;;4.75;;
20474;SDS011;10396;51.724;23.090;2022-08-30T07:24:04;13.73;;;5.10;;
20474;SDS011;10396;51.724;23.090;2022-08-30T07:26:34;11.57;;;5.30;;
20474;SDS011;10396;51.724;23.090;2022-08-30T07:29:03;10.65;;;5.10;;
20474;SDS011;10396;51.724;23.090;2022-08-30T07:31:31;15.20;;;6.00;;
20474;SDS011;10396;51.724;23.090;2022-08-30T07:34:00;10.98;;;5.10;;
20474;SDS011;10396;51.724;23.090;2022-08-30T07:36:28;11.05;;;5.40;;
20474;SDS011;10396;51.724;23.090;2022-08-30T07:38:55;11.57;;;5.50;;
20474;SDS011;10396;51.724;23.090;2022-08-30T07:41:24;13.85;;;5.25;;
20474;SDS011;10396;51.724;23.090;2022-08-30T07:43:54;9.77;;;4.85;;
20474;SDS011;10396;51.724;23.090;2022-08-30T07:46:23;10.48;;;4.55;;
20474;SDS011;10396;51.724;23.090;2022-08-30T07:48:51;9.90;;;4.75;;
20474;SDS011;10396;51.724;23.090;2022-08-30T07:51:20;10.20;;;4.80;;
20474;SDS011;10396;51.724;23.090;2022-08-30T07:53:49;9.10;;;4.85;;
20474;SDS011;10396;51.724;23.090;2022-08-30T07:56:17;12.63;;;4.45;;
20474;SDS011;10396;51.724;23.090;2022-08-30T07:58:45;10.02;;;4.65;;
20474;SDS011;10396;51.724;23.090;2022-08-30T08:01:15;9.45;;;4.78;;
20474;SDS011;10396;51.724;23.090;2022-08-30T08:03:43;11.73;;;4.85;;
20474;SDS011;10396;51.724;23.090;2022-08-30T08:06:12;11.48;;;4.47;;
20474;SDS011;10396;51.724;23.090;2022-08-30T08:08:40;9.55;;;4.30;;
20474;SDS011;10396;51.724;23.090;2022-08-30T08:11:10;9.60;;;4.18;;
20474;SDS011;10396;51.724;23.090;2022-08-30T08:13:39;9.52;;;4.55;;
20474;SDS011;10396;51.724;23.090;2022-08-30T08:16:07;10.05;;;4.70;;
20474;SDS011;10396;51.724;23.090;2022-08-30T08:18:36;11.35;;;4.72;;
20474;SDS011;10396;51.724;23.090;2022-08-30T08:21:03;9.13;;;3.90;;
20474;SDS011;10396;51.724;23.090;2022-08-30T08:23:31;6.95;;;3.50;;
20474;SDS011;10396;51.724;23.090;2022-08-30T08:25:59;12.48;;;4.25;;
20474;SDS011;10396;51.724;23.090;2022-08-30T08:28:26;11.27;;;3.92;;
20474;SDS011;10396;51.724;23.090;2022-08-30T08:30:54;7.38;;;3.53;;
20474;SDS011;10396;51.724;23.090;2022-08-30T08:33:21;8.38;;;3.53;;
20474;SDS011;10396;51.724;23.090;2022-08-30T08:35:51;10.07;;;4.00;;
20474;SDS011;10396;51.724;23.090;2022-08-30T08:38:18;8.68;;;3.15;;
20474;SDS011;10396;51.724;23.090;2022-08-30T08:40:48;8.95;;;3.38;;
20474;SDS011;10396;51.724;23.090;2022-08-30T08:43:20;8.68;;;3.58;;
20474;SDS011;10396;51.724;23.090;2022-08-30T08:45:50;7.43;;;3.53;;
20474;SDS011;10396;51.724;23.090;2022-08-30T08:48:27;6.93;;;3.20;;
20474;SDS011;10396;51.724;23.090;2022-08-30T08:50:59;8.27;;;2.97;;
20474;SDS011;10396;51.724;23.090;2022-08-30T08:53:47;8.95;;;2.85;;
20474;SDS011;10396;51.724;23.090;2022-08-30T08:56:17;5.72;;;2.95;;
20474;SDS011;10396;51.724;23.090;2022-08-30T08:58:48;6.03;;;2.80;;
20474;SDS011;10396;51.724;23.090;2022-08-30T09:01:18;7.40;;;3.33;;
20474;SDS011;10396;51.724;23.090;2022-08-30T09:03:46;6.13;;;2.70;;
20474;SDS011;10396;51.724;23.090;2022-08-30T09:06:23;6.85;;;3.20;;
20474;SDS011;10396;51.724;23.090;2022-08-30T09:08:56;7.53;;;2.97;;
20474;SDS011;10396;51.724;23.090;2022-08-30T09:11:25;6.13;;;3.03;;
20474;SDS011;10396;51.724;23.090;2022-08-30T09:13:54;7.57;;;3.00;;
20474;SDS011;10396;51.724;23.090;2022-08-30T09:19:29;5.53;;;2.78;;
20474;SDS011;10396;51.724;23.090;2022-08-30T09:22:10;7.32;;;3.05;;
20474;SDS011;10396;51.724;23.090;2022-08-30T09:24:43;6.90;;;2.70;;
20474;SDS011;10396;51.724;23.090;2022-08-30T09:27:13;6.93;;;2.80;;
20474;SDS011;10396;51.724;23.090;2022-08-30T09:29:48;6.60;;;2.80;;
20474;SDS011;10396;51.724;23.090;2022-08-30T09:32:22;5.72;;;2.88;;
20474;SDS011;10396;51.724;23.090;2022-08-30T09:34:50;6.85;;;3.08;;
20474;SDS011;10396;51.724;23.090;2022-08-30T09:37:27;4.07;;;2.40;;
20474;SDS011;10396;51.724;23.090;2022-08-30T09:39:57;5.30;;;2.53;;
20474;SDS011;10396;51.724;23.090;2022-08-30T09:42:25;5.90;;;2.65;;
20474;SDS011;10396;51.724;23.090;2022-08-30T09:44:54;6.72;;;2.40;;
20474;SDS011;10396;51.724;23.090;2022-08-30T09:47:35;5.25;;;2.30;;
20474;SDS011;10396;51.724;23.090;2022-08-30T09:50:05;6.53;;;2.72;;
20474;SDS011;10396;51.724;23.090;2022-08-30T09:52:38;6.30;;;2.80;;
20474;SDS011;10396;51.724;23.090;2022-08-30T09:55:17;6.30;;;2.67;;
20474;SDS011;10396;51.724;23.090;2022-08-30T09:57:54;7.82;;;3.03;;
20474;SDS011;10396;51.724;23.090;2022-08-30T10:00:24;8.15;;;3.20;;
20474;SDS011;10396;51.724;23.090;2022-08-30T10:02:58;7.85;;;3.00;;
20474;SDS011;10396;51.724;23.090;2022-08-30T10:05:31;6.57;;;3.20;;
20474;SDS011;10396;51.724;23.090;2022-08-30T10:08:07;6.32;;;3.22;;
20474;SDS011;10396;51.724;23.090;2022-08-30T10:10:42;8.43;;;3.72;;
20474;SDS011;10396;51.724;23.090;2022-08-30T10:16:28;6.57;;;3.15;;
20474;SDS011;10396;51.724;23.090;2022-08-30T10:19:02;5.97;;;2.88;;
20474;SDS011;10396;51.724;23.090;2022-08-30T10:21:36;6.82;;;3.20;;
20474;SDS011;10396;51.724;23.090;2022-08-30T10:24:09;5.20;;;2.85;;
20474;SDS011;10396;51.724;23.090;2022-08-30T10:26:38;6.72;;;3.10;;
20474;SDS011;10396;51.724;23.090;2022-08-30T10:29:10;7.80;;;3.03;;
20474;SDS011;10396;51.724;23.090;2022-08-30T10:31:41;5.05;;;2.80;;
20474;SDS011;10396;51.724;23.090;2022-08-30T10:34:13;7.47;;;3.10;;
20474;SDS011;10396;51.724;23.090;2022-08-30T10:36:45;7.30;;;3.50;;
20474;SDS011;10396;51.724;23.090;2022-08-30T10:39:17;6.20;;;3.20;;
20474;SDS011;10396;51.724;23.090;2022-08-30T10:41:49;6.78;;;3.20;;
20474;SDS011;10396;51.724;23.090;2022-08-30T10:44:21;6.90;;;3.25;;
20474;SDS011;10396;51.724;23.090;2022-08-30T10:46:58;6.38;;;3.30;;
20474;SDS011;10396;51.724;23.090;2022-08-30T10:49:32;8.68;;;3.50;;
20474;SDS011;10396;51.724;23.090;2022-08-30T10:52:05;7.43;;;3.80;;
20474;SDS011;10396;51.724;23.090;2022-08-30T10:54:42;7.53;;;3.47;;
20474;SDS011;10396;51.724;23.090;2022-08-30T10:57:15;8.15;;;3.70;;
20474;SDS011;10396;51.724;23.090;2022-08-30T10:59:43;8.18;;;3.88;;
20474;SDS011;10396;51.724;23.090;2022-08-30T11:02:17;8.00;;;3.70;;
20474;SDS011;10396;51.724;23.090;2022-08-30T11:04:55;7.07;;;3.20;;
20474;SDS011;10396;51.724;23.090;2022-08-30T11:07:43;6.22;;;3.28;;
20474;SDS011;10396;51.724;23.090;2022-08-30T11:12:52;7.00;;;3.17;;
20474;SDS011;10396;51.724;23.090;2022-08-30T11:15:24;9.15;;;3.40;;
20474;SDS011;10396;51.724;23.090;2022-08-30T11:17:55;6.00;;;2.90;;
20474;SDS011;10396;51.724;23.090;2022-08-30T11:20:30;8.30;;;3.30;;
20474;SDS011;10396;51.724;23.090;2022-08-30T11:25:53;7.50;;;3.10;;
20474;SDS011;10396;51.724;23.090;2022-08-30T11:31:32;7.88;;;3.17;;
20474;SDS011;10396;51.724;23.090;2022-08-30T11:34:04;7.05;;;3.40;;
20474;SDS011;10396;51.724;23.090;2022-08-30T11:39:52;6.43;;;2.65;;
20474;SDS011;10396;51.724;23.090;2022-08-30T11:42:30;6.88;;;2.55;;
20474;SDS011;10396;51.724;23.090;2022-08-30T11:48:05;8.25;;;3.53;;
20474;SDS011;10396;51.724;23.090;2022-08-30T11:50:35;10.05;;;3.95;;
20474;SDS011;10396;51.724;23.090;2022-08-30T11:53:09;8.30;;;3.80;;
20474;SDS011;10396;51.724;23.090;2022-08-30T11:55:45;7.80;;;3.80;;
20474;SDS011;10396;51.724;23.090;2022-08-30T11:58:26;8.60;;;3.85;;
20474;SDS011;10396;51.724;23.090;2022-08-30T12:01:15;9.88;;;3.40;;
20474;SDS011;10396;51.724;23.090;2022-08-30T12:18:31;7.93;;;3.53;;
20474;SDS011;10396;51.724;23.090;2022-08-30T12:21:03;8.10;;;3.50;;
20474;SDS011;10396;51.724;23.090;2022-08-30T12:23:37;8.48;;;3.63;;
20474;SDS011;10396;51.724;23.090;2022-08-30T12:26:08;6.15;;;3.50;;
20474;SDS011;10396;51.724;23.090;2022-08-30T12:28:37;8.43;;;3.80;;
20474;SDS011;10396;51.724;23.090;2022-08-30T12:31:06;6.85;;;3.50;;
20474;SDS011;10396;51.724;23.090;2022-08-30T12:33:40;9.23;;;3.80;;
20474;SDS011;10396;51.724;23.090;2022-08-30T12:36:13;5.75;;;3.20;;
20474;SDS011;10396;51.724;23.090;2022-08-30T12:38:42;8.32;;;3.53;;
20474;SDS011;10396;51.724;23.090;2022-08-30T12:41:16;7.18;;;3.17;;
20474;SDS011;10396;51.724;23.090;2022-08-30T12:43:48;6.50;;;2.95;;
20474;SDS011;10396;51.724;23.090;2022-08-30T12:46:16;11.27;;;3.30;;
20474;SDS011;10396;51.724;23.090;2022-08-30T12:48:47;7.18;;;3.28;;
20474;SDS011;10396;51.724;23.090;2022-08-30T12:51:30;8.57;;;2.80;;
20474;SDS011;10396;51.724;23.090;2022-08-30T12:54:06;5.03;;;2.67;;
20474;SDS011;10396;51.724;23.090;2022-08-30T12:56:48;5.13;;;2.80;;
20474;SDS011;10396;51.724;23.090;2022-08-30T12:59:37;6.32;;;2.63;;
20474;SDS011;10396;51.724;23.090;2022-08-30T13:02:12;5.60;;;2.65;;
20474;SDS011;10396;51.724;23.090;2022-08-30T13:04:43;4.47;;;2.50;;
20474;SDS011;10396;51.724;23.090;2022-08-30T13:07:32;4.32;;;2.00;;
20474;SDS011;10396;51.724;23.090;2022-08-30T13:10:12;3.83;;;2.17;;
20474;SDS011;10396;51.724;23.090;2022-08-30T13:12:57;5.22;;;2.55;;
20474;SDS011;10396;51.724;23.090;2022-08-30T13:15:27;5.68;;;2.33;;
20474;SDS011;10396;51.724;23.090;2022-08-30T13:18:10;4.07;;;2.25;;
20474;SDS011;10396;51.724;23.090;2022-08-30T13:20:44;5.63;;;2.45;;
20474;SDS011;10396;51.724;23.090;2022-08-30T13:23:20;3.92;;;2.40;;
20474;SDS011;10396;51.724;23.090;2022-08-30T13:28:16;5.10;;;2.50;;
20474;SDS011;10396;51.724;23.090;2022-08-30T13:30:45;5.88;;;2.92;;
20474;SDS011;10396;51.724;23.090;2022-08-30T13:33:12;4.78;;;2.55;;
20474;SDS011;10396;51.724;23.090;2022-08-30T13:35:41;5.28;;;2.55;;
20474;SDS011;10396;51.724;23.090;2022-08-30T13:38:10;5.55;;;2.35;;
20474;SDS011;10396;51.724;23.090;2022-08-30T13:40:37;5.88;;;2.53;;
20474;SDS011;10396;51.724;23.090;2022-08-30T13:43:05;6.25;;;2.72;;
20474;SDS011;10396;51.724;23.090;2022-08-30T13:45:32;4.22;;;2.40;;
20474;SDS011;10396;51.724;23.090;2022-08-30T13:48:00;5.38;;;2.38;;
20474;SDS011;10396;51.724;23.090;2022-08-30T13:50:28;4.55;;;2.42;;
20474;SDS011;10396;51.724;23.090;2022-08-30T13:52:55;5.13;;;2.40;;
20474;SDS011;10396;51.724;23.090;2022-08-30T13:55:24;6.47;;;2.30;;
20474;SDS011;10396;51.724;23.090;2022-08-30T13:57:51;6.50;;;2.58;;
20474;SDS011;10396;51.724;23.090;2022-08-30T14:00:19;15.75;;;6.70;;
20474;SDS011;10396;51.724;23.090;2022-08-30T14:02:48;11.90;;;4.70;;
20474;SDS011;10396;51.724;23.090;2022-08-30T14:05:17;5.20;;;2.45;;
20474;SDS011;10396;51.724;23.090;2022-08-30T14:07:44;6.93;;;2.58;;
20474;SDS011;10396;51.724;23.090;2022-08-30T14:10:12;8.65;;;3.33;;
20474;SDS011;10396;51.724;23.090;2022-08-30T14:12:42;5.63;;;2.17;;
20474;SDS011;10396;51.724;23.090;2022-08-30T14:15:09;5.32;;;2.20;;
20474;SDS011;10396;51.724;23.090;2022-08-30T14:17:37;5.85;;;2.80;;
20474;SDS011;10396;51.724;23.090;2022-08-30T14:20:05;7.13;;;2.30;;
20474;SDS011;10396;51.724;23.090;2022-08-30T14:22:33;6.55;;;2.10;;
20474;SDS011;10396;51.724;23.090;2022-08-30T14:25:00;6.05;;;2.53;;
20474;SDS011;10396;51.724;23.090;2022-08-30T14:27:28;5.30;;;2.20;;
20474;SDS011;10396;51.724;23.090;2022-08-30T14:29:57;7.15;;;2.67;;
20474;SDS011;10396;51.724;23.090;2022-08-30T14:32:25;5.22;;;2.20;;
20474;SDS011;10396;51.724;23.090;2022-08-30T14:34:52;3.30;;;2.05;;
20474;SDS011;10396;51.724;23.090;2022-08-30T14:37:20;6.15;;;1.88;;
20474;SDS011;10396;51.724;23.090;2022-08-30T14:39:48;2.80;;;1.80;;
20474;SDS011;10396;51.724;23.090;2022-08-30T14:42:15;3.03;;;1.75;;
20474;SDS011;10396;51.724;23.090;2022-08-30T14:44:44;5.45;;;1.80;;
20474;SDS011;10396;51.724;23.090;2022-08-30T14:47:13;3.25;;;1.90;;
20474;SDS011;10396;51.724;23.090;2022-08-30T14:49:41;3.67;;;1.80;;
20474;SDS011;10396;51.724;23.090;2022-08-30T14:52:08;4.70;;;2.00;;
20474;SDS011;10396;51.724;23.090;2022-08-30T14:54:36;4.60;;;1.80;;
20474;SDS011;10396;51.724;23.090;2022-08-30T14:57:04;5.10;;;2.20;;
20474;SDS011;10396;51.724;23.090;2022-08-30T14:59:31;5.15;;;2.00;;
20474;SDS011;10396;51.724;23.090;2022-08-30T15:01:59;3.67;;;1.70;;
20474;SDS011;10396;51.724;23.090;2022-08-30T15:04:28;3.35;;;1.90;;
20474;SDS011;10396;51.724;23.090;2022-08-30T15:06:56;3.42;;;1.83;;
20474;SDS011;10396;51.724;23.090;2022-08-30T15:09:23;4.03;;;1.88;;
20474;SDS011;10396;51.724;23.090;2022-08-30T15:11:52;4.28;;;1.83;;
20474;SDS011;10396;51.724;23.090;2022-08-30T15:14:21;5.25;;;2.13;;
20474;SDS011;10396;51.724;23.090;2022-08-30T15:16:48;3.67;;;1.90;;
20474;SDS011;10396;51.724;23.090;2022-08-30T15:19:16;3.53;;;1.73;;